sensor_id;sensor_type;location;lat;lon;timestamp;P1;durP1;ratioP1;P2;durP2;ratioP2
38220;SDS011;24023;51.280;7.148;2023-12-20T00:00:17;2.6;;;2.4;;
38220;SDS011;24023;51.280;7.148;2023-12-20T00:05:09;1.6;;;1.2;;
38220;SDS011;24023;51.280;7.148;2023-12-20T00:10:11;1.6;;;1.2;;
38220;SDS011;24023;51.280;7.148;2023-12-20T00:15:11;1.7;;;1.1;;
38220;SDS011;24023;51.280;7.148;2023-12-20T00:20:12;1.7;;;1.1;;
38220;SDS011;24023;51.280;7.148;2023-12-20T00:25:09;1.7;;;1.1;;
38220;SDS011;24023;51.280;7.148;2023-12-20T00:30:13;2.5;;;1.5;;
38220;SDS011;24023;51.280;7.148;2023-12-20T00:35:09;2.5;;;1.5;;
38220;SDS011;24023;51.280;7.148;2023-12-20T00:40:12;4.0;;;2.2;;
38220;SDS011;24023;51.280;7.148;2023-12-20T00:45:12;4.0;;;2.2;;
38220;SDS011;24023;51.280;7.148;2023-12-20T00:50:11;4.0;;;2.2;;
38220;SDS011;24023;51.280;7.148;2023-12-20T00:55:09;5.7;;;3.4;;
38220;SDS011;24023;51.280;7.148;2023-12-20T01:00:20;5.7;;;3.4;;
38220;SDS011;24023;51.280;7.148;2023-12-20T01:05:09;6.0;;;3.0;;
38220;SDS011;24023;51.280;7.148;2023-12-20T01:10:12;6.0;;;3.0;;
38220;SDS011;24023;51.280;7.148;2023-12-20T01:15:10;5.7;;;2.9;;
38220;SDS011;24023;51.280;7.148;2023-12-20T01:20:11;5.7;;;2.9;;
38220;SDS011;24023;51.280;7.148;2023-12-20T01:25:09;5.7;;;2.9;;
38220;SDS011;24023;51.280;7.148;2023-12-20T01:30:13;5.7;;;3.0;;
38220;SDS011;24023;51.280;7.148;2023-12-20T01:35:09;5.7;;;3.0;;
38220;SDS011;24023;51.280;7.148;2023-12-20T01:40:12;6.1;;;3.6;;
38220;SDS011;24023;51.280;7.148;2023-12-20T01:45:13;6.1;;;3.6;;
38220;SDS011;24023;51.280;7.148;2023-12-20T01:50:12;6.1;;;3.6;;
38220;SDS011;24023;51.280;7.148;2023-12-20T01:55:13;9.1;;;5.5;;
38220;SDS011;24023;51.280;7.148;2023-12-20T02:00:17;9.1;;;5.5;;
38220;SDS011;24023;51.280;7.148;2023-12-20T02:05:09;9.6;;;5.9;;
38220;SDS011;24023;51.280;7.148;2023-12-20T02:10:11;9.6;;;5.9;;
38220;SDS011;24023;51.280;7.148;2023-12-20T02:15:11;7.3;;;4.8;;
38220;SDS011;24023;51.280;7.148;2023-12-20T02:20:12;7.3;;;4.8;;
38220;SDS011;24023;51.280;7.148;2023-12-20T02:25:09;7.2;;;4.8;;
38220;SDS011;24023;51.280;7.148;2023-12-20T02:30:14;7.2;;;4.8;;
38220;SDS011;24023;51.280;7.148;2023-12-20T02:35:09;7.2;;;4.6;;
38220;SDS011;24023;51.280;7.148;2023-12-20T02:40:12;7.2;;;4.6;;
38220;SDS011;24023;51.280;7.148;2023-12-20T02:45:13;7.2;;;4.6;;
38220;SDS011;24023;51.280;7.148;2023-12-20T02:50:12;8.1;;;4.3;;
38220;SDS011;24023;51.280;7.148;2023-12-20T02:55:09;8.1;;;4.3;;
38220;SDS011;24023;51.280;7.148;2023-12-20T03:00:20;6.8;;;3.5;;
38220;SDS011;24023;51.280;7.148;2023-12-20T03:05:09;6.8;;;3.5;;
38220;SDS011;24023;51.280;7.148;2023-12-20T03:10:12;6.8;;;3.5;;
38220;SDS011;24023;51.280;7.148;2023-12-20T03:15:10;7.7;;;4.4;;
38220;SDS011;24023;51.280;7.148;2023-12-20T03:20:11;7.7;;;4.4;;
38220;SDS011;24023;51.280;7.148;2023-12-20T03:25:09;8.5;;;3.7;;
38220;SDS011;24023;51.280;7.148;2023-12-20T03:30:12;10.2;;;3.9;;
38220;SDS011;24023;51.280;7.148;2023-12-20T03:35:09;10.2;;;3.9;;
38220;SDS011;24023;51.280;7.148;2023-12-20T03:40:12;10.2;;;3.9;;
38220;SDS011;24023;51.280;7.148;2023-12-20T03:45:13;7.0;;;2.9;;
38220;SDS011;24023;51.280;7.148;2023-12-20T03:50:11;7.0;;;2.9;;
38220;SDS011;24023;51.280;7.148;2023-12-20T03:55:09;10.7;;;3.4;;
38220;SDS011;24023;51.280;7.148;2023-12-20T04:00:18;10.7;;;3.4;;
38220;SDS011;24023;51.280;7.148;2023-12-20T04:05:09;9.2;;;2.7;;
38220;SDS011;24023;51.280;7.148;2023-12-20T04:10:11;9.2;;;2.7;;
38220;SDS011;24023;51.280;7.148;2023-12-20T04:15:11;7.8;;;2.8;;
38220;SDS011;24023;51.280;7.148;2023-12-20T04:20:11;7.8;;;2.8;;
38220;SDS011;24023;51.280;7.148;2023-12-20T04:25:09;7.8;;;2.8;;
38220;SDS011;24023;51.280;7.148;2023-12-20T04:30:13;7.9;;;2.3;;
38220;SDS011;24023;51.280;7.148;2023-12-20T04:35:10;7.9;;;2.3;;
38220;SDS011;24023;51.280;7.148;2023-12-20T04:40:12;8.3;;;2.2;;
38220;SDS011;24023;51.280;7.148;2023-12-20T04:45:14;8.3;;;2.2;;
38220;SDS011;24023;51.280;7.148;2023-12-20T04:50:12;8.3;;;2.2;;
38220;SDS011;24023;51.280;7.148;2023-12-20T04:55:10;8.8;;;2.5;;
38220;SDS011;24023;51.280;7.148;2023-12-20T05:00:19;8.8;;;2.5;;
38220;SDS011;24023;51.280;7.148;2023-12-20T05:05:09;8.6;;;2.6;;
38220;SDS011;24023;51.280;7.148;2023-12-20T05:10:12;8.6;;;2.6;;
38220;SDS011;24023;51.280;7.148;2023-12-20T05:15:10;8.6;;;2.6;;
38220;SDS011;24023;51.280;7.148;2023-12-20T05:20:11;8.4;;;2.6;;
38220;SDS011;24023;51.280;7.148;2023-12-20T05:25:09;8.4;;;2.6;;
38220;SDS011;24023;51.280;7.148;2023-12-20T05:30:13;9.2;;;3.2;;
38220;SDS011;24023;51.280;7.148;2023-12-20T05:35:09;9.2;;;3.2;;
38220;SDS011;24023;51.280;7.148;2023-12-20T05:40:12;9.3;;;3.2;;
38220;SDS011;24023;51.280;7.148;2023-12-20T05:45:25;9.3;;;3.2;;
38220;SDS011;24023;51.280;7.148;2023-12-20T05:50:11;9.3;;;3.2;;
38220;SDS011;24023;51.280;7.148;2023-12-20T05:55:09;9.5;;;3.4;;
38220;SDS011;24023;51.280;7.148;2023-12-20T06:00:18;9.5;;;3.4;;
38220;SDS011;24023;51.280;7.148;2023-12-20T06:05:08;8.0;;;3.1;;
38220;SDS011;24023;51.280;7.148;2023-12-20T06:10:14;11.1;;;3.7;;
38220;SDS011;24023;51.280;7.148;2023-12-20T06:15:11;11.1;;;3.7;;
38220;SDS011;24023;51.280;7.148;2023-12-20T06:20:12;11.1;;;3.7;;
38220;SDS011;24023;51.280;7.148;2023-12-20T06:25:09;9.6;;;3.2;;
38220;SDS011;24023;51.280;7.148;2023-12-20T06:30:13;9.6;;;3.2;;
38220;SDS011;24023;51.280;7.148;2023-12-20T06:35:09;11.0;;;3.1;;
38220;SDS011;24023;51.280;7.148;2023-12-20T06:40:11;11.0;;;3.1;;
38220;SDS011;24023;51.280;7.148;2023-12-20T06:45:13;11.0;;;3.1;;
38220;SDS011;24023;51.280;7.148;2023-12-20T06:50:12;11.0;;;3.3;;
38220;SDS011;24023;51.280;7.148;2023-12-20T06:55:09;11.0;;;3.3;;
38220;SDS011;24023;51.280;7.148;2023-12-20T07:00:20;9.0;;;3.3;;
38220;SDS011;24023;51.280;7.148;2023-12-20T07:05:09;9.0;;;3.3;;
38220;SDS011;24023;51.280;7.148;2023-12-20T07:10:11;11.2;;;3.4;;
38220;SDS011;24023;51.280;7.148;2023-12-20T07:15:11;11.2;;;3.4;;
38220;SDS011;24023;51.280;7.148;2023-12-20T07:20:13;11.2;;;3.4;;
38220;SDS011;24023;51.280;7.148;2023-12-20T07:25:09;12.5;;;3.6;;
38220;SDS011;24023;51.280;7.148;2023-12-20T07:30:13;10.2;;;3.0;;
38220;SDS011;24023;51.280;7.148;2023-12-20T07:35:09;10.2;;;3.0;;
38220;SDS011;24023;51.280;7.148;2023-12-20T07:40:11;10.2;;;3.0;;
38220;SDS011;24023;51.280;7.148;2023-12-20T07:45:13;10.2;;;2.9;;
38220;SDS011;24023;51.280;7.148;2023-12-20T07:50:12;10.2;;;2.9;;
38220;SDS011;24023;51.280;7.148;2023-12-20T07:55:09;10.1;;;3.2;;
38220;SDS011;24023;51.280;7.148;2023-12-20T08:00:17;10.1;;;3.2;;
38220;SDS011;24023;51.280;7.148;2023-12-20T08:05:09;10.1;;;3.2;;
38220;SDS011;24023;51.280;7.148;2023-12-20T08:10:12;8.6;;;3.2;;
38220;SDS011;24023;51.280;7.148;2023-12-20T08:15:11;8.6;;;3.2;;
38220;SDS011;24023;51.280;7.148;2023-12-20T08:20:12;9.6;;;3.0;;
38220;SDS011;24023;51.280;7.148;2023-12-20T08:25:10;11.8;;;3.5;;
38220;SDS011;24023;51.280;7.148;2023-12-20T08:30:13;11.8;;;3.5;;
38220;SDS011;24023;51.280;7.148;2023-12-20T08:35:10;11.0;;;3.0;;
38220;SDS011;24023;51.280;7.148;2023-12-20T08:40:12;11.0;;;3.0;;
38220;SDS011;24023;51.280;7.148;2023-12-20T08:45:12;10.8;;;3.4;;
38220;SDS011;24023;51.280;7.148;2023-12-20T08:50:12;10.8;;;3.4;;
38220;SDS011;24023;51.280;7.148;2023-12-20T08:55:09;10.8;;;3.4;;
38220;SDS011;24023;51.280;7.148;2023-12-20T09:00:20;11.0;;;3.3;;
38220;SDS011;24023;51.280;7.148;2023-12-20T09:05:10;11.0;;;3.3;;
38220;SDS011;24023;51.280;7.148;2023-12-20T09:10:11;8.6;;;2.6;;
38220;SDS011;24023;51.280;7.148;2023-12-20T09:15:11;8.6;;;2.6;;
38220;SDS011;24023;51.280;7.148;2023-12-20T09:20:12;10.9;;;2.7;;
38220;SDS011;24023;51.280;7.148;2023-12-20T09:25:10;10.9;;;2.7;;
38220;SDS011;24023;51.280;7.148;2023-12-20T09:30:13;10.9;;;2.7;;
38220;SDS011;24023;51.280;7.148;2023-12-20T09:35:10;10.3;;;2.6;;
38220;SDS011;24023;51.280;7.148;2023-12-20T09:40:11;10.3;;;2.6;;
38220;SDS011;24023;51.280;7.148;2023-12-20T09:45:13;9.0;;;2.8;;
38220;SDS011;24023;51.280;7.148;2023-12-20T09:50:12;9.0;;;2.8;;
38220;SDS011;24023;51.280;7.148;2023-12-20T09:55:09;9.0;;;2.8;;
38220;SDS011;24023;51.280;7.148;2023-12-20T10:00:18;9.9;;;2.6;;
38220;SDS011;24023;51.280;7.148;2023-12-20T10:05:09;9.9;;;2.6;;
38220;SDS011;24023;51.280;7.148;2023-12-20T10:10:12;9.1;;;2.4;;
38220;SDS011;24023;51.280;7.148;2023-12-20T10:15:12;9.1;;;2.4;;
38220;SDS011;24023;51.280;7.148;2023-12-20T10:20:12;6.9;;;2.2;;
38220;SDS011;24023;51.280;7.148;2023-12-20T10:25:09;6.9;;;2.2;;
38220;SDS011;24023;51.280;7.148;2023-12-20T10:30:13;6.9;;;2.2;;
38220;SDS011;24023;51.280;7.148;2023-12-20T10:35:09;7.7;;;2.3;;
38220;SDS011;24023;51.280;7.148;2023-12-20T10:40:12;7.7;;;2.3;;
38220;SDS011;24023;51.280;7.148;2023-12-20T10:45:13;8.9;;;2.5;;
38220;SDS011;24023;51.280;7.148;2023-12-20T10:50:11;10.8;;;2.4;;
38220;SDS011;24023;51.280;7.148;2023-12-20T10:55:10;10.8;;;2.4;;
38220;SDS011;24023;51.280;7.148;2023-12-20T11:00:20;8.0;;;2.2;;
38220;SDS011;24023;51.280;7.148;2023-12-20T11:05:12;8.0;;;2.2;;
38220;SDS011;24023;51.280;7.148;2023-12-20T11:10:13;8.0;;;2.2;;
38220;SDS011;24023;51.280;7.148;2023-12-20T11:15:11;8.9;;;2.4;;
38220;SDS011;24023;51.280;7.148;2023-12-20T11:20:13;8.9;;;2.4;;
38220;SDS011;24023;51.280;7.148;2023-12-20T11:25:10;9.2;;;2.4;;
38220;SDS011;24023;51.280;7.148;2023-12-20T11:30:13;9.2;;;2.4;;
38220;SDS011;24023;51.280;7.148;2023-12-20T11:35:23;9.2;;;2.4;;
38220;SDS011;24023;51.280;7.148;2023-12-20T11:40:12;9.1;;;2.3;;
38220;SDS011;24023;51.280;7.148;2023-12-20T11:45:13;9.1;;;2.3;;
38220;SDS011;24023;51.280;7.148;2023-12-20T11:50:12;8.0;;;2.3;;
38220;SDS011;24023;51.280;7.148;2023-12-20T11:55:09;8.0;;;2.3;;
38220;SDS011;24023;51.280;7.148;2023-12-20T12:00:17;9.8;;;2.3;;
38220;SDS011;24023;51.280;7.148;2023-12-20T12:05:09;9.8;;;2.3;;
38220;SDS011;24023;51.280;7.148;2023-12-20T12:10:11;9.8;;;2.3;;
38220;SDS011;24023;51.280;7.148;2023-12-20T12:15:11;9.1;;;2.4;;
38220;SDS011;24023;51.280;7.148;2023-12-20T12:20:12;9.1;;;2.4;;
38220;SDS011;24023;51.280;7.148;2023-12-20T12:25:10;8.9;;;2.6;;
38220;SDS011;24023;51.280;7.148;2023-12-20T12:30:15;8.9;;;2.6;;
38220;SDS011;24023;51.280;7.148;2023-12-20T12:35:10;8.9;;;2.6;;
38220;SDS011;24023;51.280;7.148;2023-12-20T12:40:12;9.8;;;2.3;;
38220;SDS011;24023;51.280;7.148;2023-12-20T12:45:13;9.8;;;2.3;;
38220;SDS011;24023;51.280;7.148;2023-12-20T12:50:12;9.7;;;2.2;;
38220;SDS011;24023;51.280;7.148;2023-12-20T12:55:09;9.7;;;2.2;;
38220;SDS011;24023;51.280;7.148;2023-12-20T13:00:19;9.7;;;2.2;;
38220;SDS011;24023;51.280;7.148;2023-12-20T13:05:09;8.2;;;2.7;;
38220;SDS011;24023;51.280;7.148;2023-12-20T13:10:13;8.2;;;2.7;;
38220;SDS011;24023;51.280;7.148;2023-12-20T13:15:10;7.1;;;2.0;;
38220;SDS011;24023;51.280;7.148;2023-12-20T13:20:11;9.0;;;2.4;;
38220;SDS011;24023;51.280;7.148;2023-12-20T13:25:09;9.0;;;2.4;;
38220;SDS011;24023;51.280;7.148;2023-12-20T13:30:14;7.4;;;2.1;;
38220;SDS011;24023;51.280;7.148;2023-12-20T13:35:10;7.4;;;2.1;;
38220;SDS011;24023;51.280;7.148;2023-12-20T13:40:12;7.4;;;2.1;;
38220;SDS011;24023;51.280;7.148;2023-12-20T13:45:12;6.8;;;2.0;;
38220;SDS011;24023;51.280;7.148;2023-12-20T13:50:12;6.8;;;2.0;;
38220;SDS011;24023;51.280;7.148;2023-12-20T13:55:09;6.4;;;2.4;;
38220;SDS011;24023;51.280;7.148;2023-12-20T14:00:17;6.4;;;2.4;;
38220;SDS011;24023;51.280;7.148;2023-12-20T14:05:09;6.4;;;2.4;;
38220;SDS011;24023;51.280;7.148;2023-12-20T14:10:12;9.3;;;2.7;;
38220;SDS011;24023;51.280;7.148;2023-12-20T14:15:11;9.3;;;2.7;;
38220;SDS011;24023;51.280;7.148;2023-12-20T14:20:13;6.6;;;2.1;;
38220;SDS011;24023;51.280;7.148;2023-12-20T14:25:10;6.6;;;2.1;;
38220;SDS011;24023;51.280;7.148;2023-12-20T14:30:15;9.5;;;3.0;;
38220;SDS011;24023;51.280;7.148;2023-12-20T14:35:10;9.5;;;3.0;;
38220;SDS011;24023;51.280;7.148;2023-12-20T14:40:15;9.5;;;3.0;;
38220;SDS011;24023;51.280;7.148;2023-12-20T14:45:12;8.2;;;2.5;;
38220;SDS011;24023;51.280;7.148;2023-12-20T14:50:12;6.4;;;2.4;;
38220;SDS011;24023;51.280;7.148;2023-12-20T14:55:09;6.4;;;2.4;;
38220;SDS011;24023;51.280;7.148;2023-12-20T15:00:20;6.4;;;2.4;;
38220;SDS011;24023;51.280;7.148;2023-12-20T15:05:09;6.8;;;2.5;;
38220;SDS011;24023;51.280;7.148;2023-12-20T15:10:12;6.8;;;2.5;;
38220;SDS011;24023;51.280;7.148;2023-12-20T15:15:11;7.1;;;2.6;;
38220;SDS011;24023;51.280;7.148;2023-12-20T15:20:12;7.1;;;2.6;;
38220;SDS011;24023;51.280;7.148;2023-12-20T15:25:10;7.1;;;2.6;;
38220;SDS011;24023;51.280;7.148;2023-12-20T15:30:13;7.2;;;2.5;;
38220;SDS011;24023;51.280;7.148;2023-12-20T15:35:10;7.2;;;2.5;;
38220;SDS011;24023;51.280;7.148;2023-12-20T15:40:12;7.7;;;3.0;;
38220;SDS011;24023;51.280;7.148;2023-12-20T15:45:13;7.7;;;3.0;;
38220;SDS011;24023;51.280;7.148;2023-12-20T15:50:13;7.7;;;3.0;;
38220;SDS011;24023;51.280;7.148;2023-12-20T15:55:09;6.7;;;2.4;;
38220;SDS011;24023;51.280;7.148;2023-12-20T16:00:18;11.6;;;4.8;;
38220;SDS011;24023;51.280;7.148;2023-12-20T16:05:09;11.6;;;4.8;;
38220;SDS011;24023;51.280;7.148;2023-12-20T16:10:11;7.1;;;3.3;;
38220;SDS011;24023;51.280;7.148;2023-12-20T16:15:10;7.1;;;3.3;;
38220;SDS011;24023;51.280;7.148;2023-12-20T16:20:12;25.4;;;16.1;;
38220;SDS011;24023;51.280;7.148;2023-12-20T16:25:10;25.4;;;16.1;;
38220;SDS011;24023;51.280;7.148;2023-12-20T16:30:14;9.1;;;3.0;;
38220;SDS011;24023;51.280;7.148;2023-12-20T16:35:09;9.1;;;3.0;;
38220;SDS011;24023;51.280;7.148;2023-12-20T16:40:12;10.1;;;5.0;;
38220;SDS011;24023;51.280;7.148;2023-12-20T16:45:13;10.1;;;5.0;;
38220;SDS011;24023;51.280;7.148;2023-12-20T16:50:11;25.3;;;17.4;;
38220;SDS011;24023;51.280;7.148;2023-12-20T16:55:09;25.3;;;17.4;;
38220;SDS011;24023;51.280;7.148;2023-12-20T17:00:20;10.7;;;4.8;;
38220;SDS011;24023;51.280;7.148;2023-12-20T17:05:09;10.7;;;4.8;;
38220;SDS011;24023;51.280;7.148;2023-12-20T17:10:12;12.1;;;6.8;;
38220;SDS011;24023;51.280;7.148;2023-12-20T17:15:11;12.1;;;6.8;;
38220;SDS011;24023;51.280;7.148;2023-12-20T17:20:12;8.3;;;3.7;;
38220;SDS011;24023;51.280;7.148;2023-12-20T17:25:10;8.3;;;3.7;;
38220;SDS011;24023;51.280;7.148;2023-12-20T17:30:13;9.9;;;3.9;;
38220;SDS011;24023;51.280;7.148;2023-12-20T17:35:09;9.9;;;3.9;;
38220;SDS011;24023;51.280;7.148;2023-12-20T17:40:11;9.9;;;3.9;;
38220;SDS011;24023;51.280;7.148;2023-12-20T17:45:14;9.4;;;4.7;;
38220;SDS011;24023;51.280;7.148;2023-12-20T17:50:11;9.4;;;4.7;;
38220;SDS011;24023;51.280;7.148;2023-12-20T17:55:09;9.7;;;4.1;;
38220;SDS011;24023;51.280;7.148;2023-12-20T18:00:18;11.0;;;6.8;;
38220;SDS011;24023;51.280;7.148;2023-12-20T18:05:09;11.0;;;6.8;;
38220;SDS011;24023;51.280;7.148;2023-12-20T18:10:11;8.2;;;4.1;;
38220;SDS011;24023;51.280;7.148;2023-12-20T18:15:11;8.2;;;4.1;;
38220;SDS011;24023;51.280;7.148;2023-12-20T18:20:12;8.2;;;4.1;;
38220;SDS011;24023;51.280;7.148;2023-12-20T18:25:09;8.7;;;4.3;;
38220;SDS011;24023;51.280;7.148;2023-12-20T18:30:13;8.7;;;4.3;;
38220;SDS011;24023;51.280;7.148;2023-12-20T18:35:09;9.4;;;4.1;;
38220;SDS011;24023;51.280;7.148;2023-12-20T18:40:12;9.4;;;4.1;;
38220;SDS011;24023;51.280;7.148;2023-12-20T18:45:13;9.4;;;4.1;;
38220;SDS011;24023;51.280;7.148;2023-12-20T18:50:11;8.8;;;3.9;;
38220;SDS011;24023;51.280;7.148;2023-12-20T18:55:09;8.8;;;3.9;;
38220;SDS011;24023;51.280;7.148;2023-12-20T19:00:20;7.8;;;3.8;;
38220;SDS011;24023;51.280;7.148;2023-12-20T19:05:09;7.8;;;3.8;;
38220;SDS011;24023;51.280;7.148;2023-12-20T19:10:14;7.8;;;3.8;;
38220;SDS011;24023;51.280;7.148;2023-12-20T19:15:11;6.3;;;3.3;;
38220;SDS011;24023;51.280;7.148;2023-12-20T19:20:11;8.3;;;3.4;;
38220;SDS011;24023;51.280;7.148;2023-12-20T19:25:09;8.3;;;3.4;;
38220;SDS011;24023;51.280;7.148;2023-12-20T19:30:13;8.3;;;3.4;;
38220;SDS011;24023;51.280;7.148;2023-12-20T19:35:09;8.3;;;3.3;;
38220;SDS011;24023;51.280;7.148;2023-12-20T19:40:11;8.3;;;3.3;;
38220;SDS011;24023;51.280;7.148;2023-12-20T19:45:13;9.1;;;3.0;;
38220;SDS011;24023;51.280;7.148;2023-12-20T19:50:11;6.6;;;2.8;;
38220;SDS011;24023;51.280;7.148;2023-12-20T19:55:09;6.6;;;2.8;;
38220;SDS011;24023;51.280;7.148;2023-12-20T20:00:21;11.6;;;8.1;;
38220;SDS011;24023;51.280;7.148;2023-12-20T20:05:11;11.6;;;8.1;;
38220;SDS011;24023;51.280;7.148;2023-12-20T20:10:14;8.4;;;2.9;;
38220;SDS011;24023;51.280;7.148;2023-12-20T20:15:11;8.4;;;2.9;;
38220;SDS011;24023;51.280;7.148;2023-12-20T20:20:12;6.1;;;2.9;;
38220;SDS011;24023;51.280;7.148;2023-12-20T20:25:09;6.1;;;2.9;;
38220;SDS011;24023;51.280;7.148;2023-12-20T20:30:13;8.0;;;3.0;;
38220;SDS011;24023;51.280;7.148;2023-12-20T20:35:09;8.0;;;3.0;;
38220;SDS011;24023;51.280;7.148;2023-12-20T20:40:13;6.4;;;2.6;;
38220;SDS011;24023;51.280;7.148;2023-12-20T20:45:13;6.4;;;2.6;;
38220;SDS011;24023;51.280;7.148;2023-12-20T20:50:12;6.4;;;2.6;;
38220;SDS011;24023;51.280;7.148;2023-12-20T20:55:09;6.4;;;3.4;;
38220;SDS011;24023;51.280;7.148;2023-12-20T21:00:20;6.4;;;3.4;;
38220;SDS011;24023;51.280;7.148;2023-12-20T21:05:09;7.0;;;2.9;;
38220;SDS011;24023;51.280;7.148;2023-12-20T21:10:11;3.6;;;1.8;;
38220;SDS011;24023;51.280;7.148;2023-12-20T21:15:11;3.6;;;1.8;;
38220;SDS011;24023;51.280;7.148;2023-12-20T21:20:12;3.6;;;1.8;;
38220;SDS011;24023;51.280;7.148;2023-12-20T21:25:10;2.7;;;1.2;;
38220;SDS011;24023;51.280;7.148;2023-12-20T21:30:13;2.7;;;1.2;;
38220;SDS011;24023;51.280;7.148;2023-12-20T21:35:09;1.8;;;1.0;;
38220;SDS011;24023;51.280;7.148;2023-12-20T21:40:12;1.8;;;1.0;;
38220;SDS011;24023;51.280;7.148;2023-12-20T21:45:13;1.8;;;1.0;;
38220;SDS011;24023;51.280;7.148;2023-12-20T21:50:11;2.0;;;1.2;;
38220;SDS011;24023;51.280;7.148;2023-12-20T21:55:09;2.0;;;1.2;;
38220;SDS011;24023;51.280;7.148;2023-12-20T22:00:18;2.3;;;1.0;;
38220;SDS011;24023;51.280;7.148;2023-12-20T22:05:09;2.3;;;1.0;;
38220;SDS011;24023;51.280;7.148;2023-12-20T22:10:12;2.3;;;1.0;;
38220;SDS011;24023;51.280;7.148;2023-12-20T22:15:11;2.1;;;0.7;;
38220;SDS011;24023;51.280;7.148;2023-12-20T22:20:15;2.1;;;0.7;;
38220;SDS011;24023;51.280;7.148;2023-12-20T22:25:09;1.4;;;0.7;;
38220;SDS011;24023;51.280;7.148;2023-12-20T22:30:13;1.4;;;0.7;;
38220;SDS011;24023;51.280;7.148;2023-12-20T22:35:09;1.7;;;0.8;;
38220;SDS011;24023;51.280;7.148;2023-12-20T22:40:12;1.7;;;0.8;;
38220;SDS011;24023;51.280;7.148;2023-12-20T22:45:13;1.7;;;0.8;;
38220;SDS011;24023;51.280;7.148;2023-12-20T22:50:15;2.0;;;1.0;;
38220;SDS011;24023;51.280;7.148;2023-12-20T22:55:09;2.0;;;1.0;;
38220;SDS011;24023;51.280;7.148;2023-12-20T23:00:27;2.4;;;1.2;;
38220;SDS011;24023;51.280;7.148;2023-12-20T23:05:12;2.4;;;1.2;;
38220;SDS011;24023;51.280;7.148;2023-12-20T23:10:12;2.4;;;1.2;;
38220;SDS011;24023;51.280;7.148;2023-12-20T23:15:11;1.8;;;1.0;;
38220;SDS011;24023;51.280;7.148;2023-12-20T23:20:11;1.8;;;1.0;;
38220;SDS011;24023;51.280;7.148;2023-12-20T23:25:09;2.6;;;0.9;;
38220;SDS011;24023;51.280;7.148;2023-12-20T23:30:13;2.6;;;0.9;;
38220;SDS011;24023;51.280;7.148;2023-12-20T23:35:09;2.6;;;0.9;;
38220;SDS011;24023;51.280;7.148;2023-12-20T23:40:11;2.9;;;0.9;;
38220;SDS011;24023;51.280;7.148;2023-12-20T23:45:13;2.9;;;0.9;;
38220;SDS011;24023;51.280;7.148;2023-12-20T23:50:11;2.2;;;0.9;;
38220;SDS011;24023;51.280;7.148;2023-12-20T23:55:12;2.2;;;0.9;;
